Terminal Aerodrome Forecast
Issued by NWS Mobile, AL

Current Version | Previous Version | Text Only | Print | Product List | Glossary On
Versions: 1 2 3 4 5 6 7 8 9 10 11 12 13 14
000
FTUS44 KMOB 291134
TAFMOB
TAF
KMOB 291134Z 2912/3012 15015G23KT P6SM BKN008
     FM291500 14020G30KT P6SM BKN015
     FM300300 13014G20KT P6SM OVC007=

USA.gov is the U.S. government's official web portal to all federal, state and local government web resources and services.